sensor_id;sensor_type;location;lat;lon;timestamp;pressure;altitude;pressure_sealevel;temperature;humidity
47082;BME280;33066;49.296;14.470;2023-02-23T00:00:48;96702.85;;;11.99;36.22
47082;BME280;33066;49.296;14.470;2023-02-23T00:03:14;96699.84;;;12.12;36.26
47082;BME280;33066;49.296;14.470;2023-02-23T00:05:40;96697.34;;;11.98;36.19
47082;BME280;33066;49.296;14.470;2023-02-23T00:08:06;96695.73;;;12.18;36.18
47082;BME280;33066;49.296;14.470;2023-02-23T00:10:30;96690.96;;;11.94;36.12
47082;BME280;33066;49.296;14.470;2023-02-23T00:12:55;96689.32;;;11.99;35.94
47082;BME280;33066;49.296;14.470;2023-02-23T00:15:20;96687.96;;;12.06;36.12
47082;BME280;33066;49.296;14.470;2023-02-23T00:17:45;96686.72;;;11.95;36.16
47082;BME280;33066;49.296;14.470;2023-02-23T00:20:12;96688.90;;;11.92;36.37
47082;BME280;33066;49.296;14.470;2023-02-23T00:22:38;96687.37;;;11.93;36.05
47082;BME280;33066;49.296;14.470;2023-02-23T00:25:01;96689.99;;;11.92;36.09
47082;BME280;33066;49.296;14.470;2023-02-23T00:27:27;96686.87;;;12.15;36.04
47082;BME280;33066;49.296;14.470;2023-02-23T00:29:53;96685.56;;;11.84;35.82
47082;BME280;33066;49.296;14.470;2023-02-23T00:32:17;96684.41;;;11.65;36.21
47082;BME280;33066;49.296;14.470;2023-02-23T00:34:43;96682.10;;;12.04;36.23
47082;BME280;33066;49.296;14.470;2023-02-23T00:37:08;96680.16;;;12.02;36.13
47082;BME280;33066;49.296;14.470;2023-02-23T00:39:33;96678.17;;;11.81;36.08
47082;BME280;33066;49.296;14.470;2023-02-23T00:41:59;96676.87;;;11.92;36.40
47082;BME280;33066;49.296;14.470;2023-02-23T00:44:24;96679.37;;;11.76;36.26
47082;BME280;33066;49.296;14.470;2023-02-23T00:46:51;96678.36;;;11.76;36.39
47082;BME280;33066;49.296;14.470;2023-02-23T00:49:18;96680.17;;;11.99;36.34
47082;BME280;33066;49.296;14.470;2023-02-23T00:51:41;96679.99;;;11.61;36.32
47082;BME280;33066;49.296;14.470;2023-02-23T00:54:09;96679.26;;;11.87;36.32
47082;BME280;33066;49.296;14.470;2023-02-23T00:56:33;96678.07;;;12.01;36.19
47082;BME280;33066;49.296;14.470;2023-02-23T00:58:58;96674.87;;;11.76;36.19
47082;BME280;33066;49.296;14.470;2023-02-23T01:01:23;96677.09;;;11.99;36.13
47082;BME280;33066;49.296;14.470;2023-02-23T01:03:48;96678.72;;;11.85;36.24
47082;BME280;33066;49.296;14.470;2023-02-23T01:06:16;96676.92;;;11.63;36.07
47082;BME280;33066;49.296;14.470;2023-02-23T01:08:41;96677.89;;;11.85;36.20
47082;BME280;33066;49.296;14.470;2023-02-23T01:11:06;96679.72;;;12.16;36.05
47082;BME280;33066;49.296;14.470;2023-02-23T01:13:30;96677.94;;;11.84;35.97
47082;BME280;33066;49.296;14.470;2023-02-23T01:15:56;96677.40;;;12.07;35.94
47082;BME280;33066;49.296;14.470;2023-02-23T01:18:21;96675.44;;;12.08;35.97
47082;BME280;33066;49.296;14.470;2023-02-23T01:20:47;96675.40;;;11.92;35.96
47082;BME280;33066;49.296;14.470;2023-02-23T01:23:13;96673.12;;;11.68;35.94
47082;BME280;33066;49.296;14.470;2023-02-23T01:25:38;96670.43;;;11.33;36.05
47082;BME280;33066;49.296;14.470;2023-02-23T01:28:05;96670.42;;;11.71;36.22
47082;BME280;33066;49.296;14.470;2023-02-23T01:30:29;96670.53;;;11.44;36.24
47082;BME280;33066;49.296;14.470;2023-02-23T01:32:54;96667.95;;;11.58;36.20
47082;BME280;33066;49.296;14.470;2023-02-23T01:35:19;96668.58;;;11.58;36.22
47082;BME280;33066;49.296;14.470;2023-02-23T01:37:44;96669.51;;;11.59;36.23
47082;BME280;33066;49.296;14.470;2023-02-23T01:40:13;96669.68;;;11.79;36.51
47082;BME280;33066;49.296;14.470;2023-02-23T01:42:37;96669.53;;;11.89;36.45
47082;BME280;33066;49.296;14.470;2023-02-23T01:47:26;96668.46;;;11.78;35.92
47082;BME280;33066;49.296;14.470;2023-02-23T01:49:52;96666.63;;;12.00;35.59
47082;BME280;33066;49.296;14.470;2023-02-23T01:52:18;96665.15;;;12.06;35.74
47082;BME280;33066;49.296;14.470;2023-02-23T01:54:47;96660.62;;;11.63;35.64
47082;BME280;33066;49.296;14.470;2023-02-23T01:57:12;96660.80;;;11.89;35.72
47082;BME280;33066;49.296;14.470;2023-02-23T01:59:39;96656.35;;;11.51;35.74
47082;BME280;33066;49.296;14.470;2023-02-23T02:02:00;96655.14;;;11.64;35.89
47082;BME280;33066;49.296;14.470;2023-02-23T02:04:26;96652.23;;;11.26;35.97
47082;BME280;33066;49.296;14.470;2023-02-23T02:06:51;96648.48;;;11.49;36.01
47082;BME280;33066;49.296;14.470;2023-02-23T02:09:16;96644.37;;;11.19;35.98
47082;BME280;33066;49.296;14.470;2023-02-23T02:11:41;96643.50;;;11.04;36.26
47082;BME280;33066;49.296;14.470;2023-02-23T02:14:09;96641.68;;;11.26;36.36
47082;BME280;33066;49.296;14.470;2023-02-23T02:16:44;96641.50;;;11.28;36.32
47082;BME280;33066;49.296;14.470;2023-02-23T02:19:11;96638.40;;;11.16;36.30
47082;BME280;33066;49.296;14.470;2023-02-23T02:24:07;96635.35;;;11.45;36.19
47082;BME280;33066;49.296;14.470;2023-02-23T02:26:22;96635.55;;;11.55;36.00
47082;BME280;33066;49.296;14.470;2023-02-23T02:33:45;96627.94;;;11.45;36.12
47082;BME280;33066;49.296;14.470;2023-02-23T02:36:14;96625.62;;;11.07;36.20
47082;BME280;33066;49.296;14.470;2023-02-23T02:38:28;96628.60;;;11.03;36.25
47082;BME280;33066;49.296;14.470;2023-02-23T02:40:49;96624.53;;;11.22;36.29
47082;BME280;33066;49.296;14.470;2023-02-23T02:43:16;96625.73;;;11.01;36.34
47082;BME280;33066;49.296;14.470;2023-02-23T02:45:42;96624.28;;;11.23;36.39
47082;BME280;33066;49.296;14.470;2023-02-23T02:48:05;96624.15;;;11.23;36.44
47082;BME280;33066;49.296;14.470;2023-02-23T02:50:32;96624.28;;;11.18;36.48
47082;BME280;33066;49.296;14.470;2023-02-23T02:52:56;96621.92;;;11.22;36.43
47082;BME280;33066;49.296;14.470;2023-02-23T02:55:20;96622.91;;;11.21;36.41
47082;BME280;33066;49.296;14.470;2023-02-23T02:57:44;96623.33;;;11.26;36.21
47082;BME280;33066;49.296;14.470;2023-02-23T03:00:13;96622.20;;;11.14;36.17
47082;BME280;33066;49.296;14.470;2023-02-23T03:02:35;96626.29;;;11.12;36.25
47082;BME280;33066;49.296;14.470;2023-02-23T03:04:58;96626.99;;;11.03;36.31
47082;BME280;33066;49.296;14.470;2023-02-23T03:07:28;96629.43;;;10.98;36.34
47082;BME280;33066;49.296;14.470;2023-02-23T03:09:52;96630.07;;;11.10;36.42
47082;BME280;33066;49.296;14.470;2023-02-23T03:12:22;96630.49;;;10.91;36.44
47082;BME280;33066;49.296;14.470;2023-02-23T03:14:45;96628.85;;;11.16;36.44
47082;BME280;33066;49.296;14.470;2023-02-23T03:17:08;96632.84;;;10.95;36.31
47082;BME280;33066;49.296;14.470;2023-02-23T03:19:33;96631.07;;;11.44;36.27
47082;BME280;33066;49.296;14.470;2023-02-23T03:22:00;96631.81;;;11.02;36.34
47082;BME280;33066;49.296;14.470;2023-02-23T03:24:28;96630.07;;;11.06;36.48
47082;BME280;33066;49.296;14.470;2023-02-23T03:26:49;96632.71;;;11.10;36.37
47082;BME280;33066;49.296;14.470;2023-02-23T03:29:15;96633.10;;;11.11;36.34
47082;BME280;33066;49.296;14.470;2023-02-23T03:31:39;96632.39;;;11.09;36.06
47082;BME280;33066;49.296;14.470;2023-02-23T03:34:10;96632.75;;;11.10;36.29
47082;BME280;33066;49.296;14.470;2023-02-23T03:36:31;96634.63;;;11.13;36.37
47082;BME280;33066;49.296;14.470;2023-02-23T03:38:56;96631.62;;;11.14;36.37
47082;BME280;33066;49.296;14.470;2023-02-23T03:41:19;96634.86;;;10.92;36.36
47082;BME280;33066;49.296;14.470;2023-02-23T03:43:48;96633.14;;;11.18;36.07
47082;BME280;33066;49.296;14.470;2023-02-23T03:46:11;96635.70;;;11.15;35.98
47082;BME280;33066;49.296;14.470;2023-02-23T03:48:35;96635.35;;;11.06;35.75
47082;BME280;33066;49.296;14.470;2023-02-23T03:51:03;96634.33;;;10.97;35.75
47082;BME280;33066;49.296;14.470;2023-02-23T03:53:31;96632.83;;;10.81;35.93
47082;BME280;33066;49.296;14.470;2023-02-23T03:55:54;96633.78;;;10.70;36.00
47082;BME280;33066;49.296;14.470;2023-02-23T03:58:20;96629.55;;;10.68;35.99
47082;BME280;33066;49.296;14.470;2023-02-23T04:00:43;96632.73;;;10.73;36.07
47082;BME280;33066;49.296;14.470;2023-02-23T04:03:08;96633.08;;;10.54;36.16
47082;BME280;33066;49.296;14.470;2023-02-23T04:05:34;96631.99;;;10.40;36.18
47082;BME280;33066;49.296;14.470;2023-02-23T04:07:57;96629.13;;;10.38;36.23
47082;BME280;33066;49.296;14.470;2023-02-23T04:13:05;96625.85;;;10.70;35.91
47082;BME280;33066;49.296;14.470;2023-02-23T04:15:30;96629.71;;;10.58;36.01
47082;BME280;33066;49.296;14.470;2023-02-23T04:17:52;96630.38;;;10.63;36.22
47082;BME280;33066;49.296;14.470;2023-02-23T04:20:16;96628.70;;;10.53;36.14
47082;BME280;33066;49.296;14.470;2023-02-23T04:22:42;96625.41;;;10.55;36.05
47082;BME280;33066;49.296;14.470;2023-02-23T04:25:09;96626.51;;;10.64;36.14
47082;BME280;33066;49.296;14.470;2023-02-23T04:27:33;96628.23;;;10.78;36.13
47082;BME280;33066;49.296;14.470;2023-02-23T04:29:59;96629.15;;;10.77;36.25
47082;BME280;33066;49.296;14.470;2023-02-23T04:32:25;96627.31;;;10.48;36.49
47082;BME280;33066;49.296;14.470;2023-02-23T04:34:50;96624.06;;;10.58;36.49
47082;BME280;33066;49.296;14.470;2023-02-23T04:37:16;96625.31;;;10.59;36.25
47082;BME280;33066;49.296;14.470;2023-02-23T04:39:42;96628.83;;;10.69;36.26
47082;BME280;33066;49.296;14.470;2023-02-23T04:42:07;96628.81;;;10.41;36.20
47082;BME280;33066;49.296;14.470;2023-02-23T04:44:33;96627.81;;;10.63;36.23
47082;BME280;33066;49.296;14.470;2023-02-23T04:46:58;96626.59;;;10.39;36.31
47082;BME280;33066;49.296;14.470;2023-02-23T04:49:24;96627.34;;;10.33;36.32
47082;BME280;33066;49.296;14.470;2023-02-23T04:51:49;96624.31;;;10.66;36.39
47082;BME280;33066;49.296;14.470;2023-02-23T04:54:15;96625.75;;;10.39;36.22
47082;BME280;33066;49.296;14.470;2023-02-23T04:56:40;96627.07;;;10.67;36.25
47082;BME280;33066;49.296;14.470;2023-02-23T04:59:06;96626.02;;;10.95;36.23
47082;BME280;33066;49.296;14.470;2023-02-23T05:01:31;96626.05;;;10.64;36.29
47082;BME280;33066;49.296;14.470;2023-02-23T05:03:57;96623.80;;;10.61;36.49
47082;BME280;33066;49.296;14.470;2023-02-23T05:06:22;96626.93;;;10.63;36.58
47082;BME280;33066;49.296;14.470;2023-02-23T05:08:47;96627.93;;;10.67;36.62
47082;BME280;33066;49.296;14.470;2023-02-23T05:11:13;96625.55;;;10.88;36.83
47082;BME280;33066;49.296;14.470;2023-02-23T05:13:38;96628.65;;;10.41;36.64
47082;BME280;33066;49.296;14.470;2023-02-23T05:16:04;96628.90;;;10.63;36.64
47082;BME280;33066;49.296;14.470;2023-02-23T05:18:29;96628.55;;;10.31;36.15
47082;BME280;33066;49.296;14.470;2023-02-23T05:21:00;96628.87;;;10.41;36.24
47082;BME280;33066;49.296;14.470;2023-02-23T05:23:20;96629.05;;;10.27;36.34
47082;BME280;33066;49.296;14.470;2023-02-23T05:25:45;96630.08;;;10.51;36.25
47082;BME280;33066;49.296;14.470;2023-02-23T05:28:11;96630.43;;;10.15;36.31
47082;BME280;33066;49.296;14.470;2023-02-23T05:30:36;96629.28;;;10.49;36.34
47082;BME280;33066;49.296;14.470;2023-02-23T05:33:02;96634.94;;;10.22;36.44
47082;BME280;33066;49.296;14.470;2023-02-23T05:35:28;96633.24;;;10.35;36.33
47082;BME280;33066;49.296;14.470;2023-02-23T05:37:53;96633.96;;;9.92;36.56
47082;BME280;33066;49.296;14.470;2023-02-23T05:40:19;96638.92;;;9.92;36.54
47082;BME280;33066;49.296;14.470;2023-02-23T05:42:44;96638.26;;;9.94;36.56
47082;BME280;33066;49.296;14.470;2023-02-23T05:45:10;96640.81;;;10.18;36.47
47082;BME280;33066;49.296;14.470;2023-02-23T05:47:35;96647.93;;;10.14;36.74
47082;BME280;33066;49.296;14.470;2023-02-23T05:50:01;96647.61;;;10.25;36.97
47082;BME280;33066;49.296;14.470;2023-02-23T05:52:26;96651.39;;;9.94;36.46
47082;BME280;33066;49.296;14.470;2023-02-23T05:54:51;96655.04;;;10.13;36.47
47082;BME280;33066;49.296;14.470;2023-02-23T05:57:16;96653.32;;;9.96;36.66
47082;BME280;33066;49.296;14.470;2023-02-23T05:59:42;96654.86;;;10.01;36.68
47082;BME280;33066;49.296;14.470;2023-02-23T06:02:07;96656.06;;;10.12;36.79
47082;BME280;33066;49.296;14.470;2023-02-23T06:04:33;96656.54;;;10.26;36.57
47082;BME280;33066;49.296;14.470;2023-02-23T06:06:59;96658.33;;;9.38;36.58
47082;BME280;33066;49.296;14.470;2023-02-23T06:09:24;96662.86;;;10.32;36.05
47082;BME280;33066;49.296;14.470;2023-02-23T06:11:49;96662.17;;;10.26;35.96
47082;BME280;33066;49.296;14.470;2023-02-23T06:14:14;96660.48;;;10.31;36.05
47082;BME280;33066;49.296;14.470;2023-02-23T06:16:39;96663.71;;;10.55;36.07
47082;BME280;33066;49.296;14.470;2023-02-23T06:19:04;96666.22;;;10.79;35.92
47082;BME280;33066;49.296;14.470;2023-02-23T06:21:30;96666.03;;;10.35;35.85
47082;BME280;33066;49.296;14.470;2023-02-23T06:23:55;96667.41;;;10.53;36.03
47082;BME280;33066;49.296;14.470;2023-02-23T06:26:20;96666.81;;;10.38;36.02
47082;BME280;33066;49.296;14.470;2023-02-23T06:28:46;96668.17;;;10.51;36.16
47082;BME280;33066;49.296;14.470;2023-02-23T06:31:11;96669.22;;;10.53;35.97
47082;BME280;33066;49.296;14.470;2023-02-23T06:33:36;96673.85;;;10.76;36.10
47082;BME280;33066;49.296;14.470;2023-02-23T06:36:02;96672.16;;;10.45;36.22
47082;BME280;33066;49.296;14.470;2023-02-23T06:38:27;96674.61;;;10.62;36.15
47082;BME280;33066;49.296;14.470;2023-02-23T06:40:52;96670.66;;;10.30;36.38
47082;BME280;33066;49.296;14.470;2023-02-23T06:43:18;96671.47;;;10.61;36.89
47082;BME280;33066;49.296;14.470;2023-02-23T06:45:44;96672.87;;;10.49;36.72
47082;BME280;33066;49.296;14.470;2023-02-23T06:48:08;96674.88;;;10.68;36.71
47082;BME280;33066;49.296;14.470;2023-02-23T06:50:33;96675.01;;;10.77;36.59
47082;BME280;33066;49.296;14.470;2023-02-23T06:52:58;96674.49;;;10.75;36.51
47082;BME280;33066;49.296;14.470;2023-02-23T06:55:24;96676.35;;;10.79;36.44
47082;BME280;33066;49.296;14.470;2023-02-23T06:57:50;96675.64;;;10.76;36.54
47082;BME280;33066;49.296;14.470;2023-02-23T07:00:16;96677.33;;;11.04;36.61
47082;BME280;33066;49.296;14.470;2023-02-23T07:02:41;96680.61;;;10.85;36.74
47082;BME280;33066;49.296;14.470;2023-02-23T07:05:07;96683.59;;;10.83;37.14
47082;BME280;33066;49.296;14.470;2023-02-23T07:07:32;96686.07;;;10.90;36.84
47082;BME280;33066;49.296;14.470;2023-02-23T07:09:58;96685.30;;;10.80;37.14
47082;BME280;33066;49.296;14.470;2023-02-23T07:12:23;96687.54;;;11.00;37.25
47082;BME280;33066;49.296;14.470;2023-02-23T07:14:48;96687.91;;;11.07;38.08
47082;BME280;33066;49.296;14.470;2023-02-23T07:17:14;96685.55;;;11.15;37.87
47082;BME280;33066;49.296;14.470;2023-02-23T07:19:39;96685.31;;;11.26;37.66
47082;BME280;33066;49.296;14.470;2023-02-23T07:22:05;96683.79;;;11.14;37.45
47082;BME280;33066;49.296;14.470;2023-02-23T07:24:30;96685.59;;;11.47;37.73
47082;BME280;33066;49.296;14.470;2023-02-23T07:26:56;96686.05;;;11.28;37.89
47082;BME280;33066;49.296;14.470;2023-02-23T07:29:22;96687.43;;;11.47;37.39
47082;BME280;33066;49.296;14.470;2023-02-23T07:31:47;96685.86;;;11.74;37.71
47082;BME280;33066;49.296;14.470;2023-02-23T07:34:12;96686.84;;;11.80;37.50
47082;BME280;33066;49.296;14.470;2023-02-23T07:36:38;96687.62;;;11.90;37.16
47082;BME280;33066;49.296;14.470;2023-02-23T07:39:04;96685.93;;;12.00;37.09
47082;BME280;33066;49.296;14.470;2023-02-23T07:41:29;96687.45;;;11.96;37.28
47082;BME280;33066;49.296;14.470;2023-02-23T07:43:55;96688.17;;;11.80;37.28
47082;BME280;33066;49.296;14.470;2023-02-23T07:46:20;96687.65;;;12.17;37.41
47082;BME280;33066;49.296;14.470;2023-02-23T07:48:45;96689.71;;;12.13;37.68
47082;BME280;33066;49.296;14.470;2023-02-23T07:51:11;96688.94;;;12.25;37.76
47082;BME280;33066;49.296;14.470;2023-02-23T07:53:36;96693.08;;;12.26;37.78
47082;BME280;33066;49.296;14.470;2023-02-23T07:56:01;96693.58;;;12.28;38.03
47082;BME280;33066;49.296;14.470;2023-02-23T07:58:27;96695.07;;;12.31;37.98
47082;BME280;33066;49.296;14.470;2023-02-23T08:00:53;96697.63;;;12.26;38.06
47082;BME280;33066;49.296;14.470;2023-02-23T08:03:18;96695.33;;;12.25;38.25
47082;BME280;33066;49.296;14.470;2023-02-23T08:05:43;96696.38;;;12.48;38.24
47082;BME280;33066;49.296;14.470;2023-02-23T08:08:08;96698.32;;;12.02;38.32
47082;BME280;33066;49.296;14.470;2023-02-23T08:10:33;96696.83;;;12.26;38.37
47082;BME280;33066;49.296;14.470;2023-02-23T08:12:59;96696.30;;;12.32;38.34
47082;BME280;33066;49.296;14.470;2023-02-23T08:15:25;96698.47;;;12.70;38.27
47082;BME280;33066;49.296;14.470;2023-02-23T08:17:50;96699.86;;;12.58;38.21
47082;BME280;33066;49.296;14.470;2023-02-23T08:20:16;96695.84;;;12.70;38.14
47082;BME280;33066;49.296;14.470;2023-02-23T08:22:42;96692.45;;;12.79;38.08
47082;BME280;33066;49.296;14.470;2023-02-23T08:25:08;96694.59;;;12.81;38.01
47082;BME280;33066;49.296;14.470;2023-02-23T08:27:33;96694.69;;;12.90;38.04
47082;BME280;33066;49.296;14.470;2023-02-23T08:29:58;96694.41;;;13.01;37.92
47082;BME280;33066;49.296;14.470;2023-02-23T08:32:24;96693.71;;;12.73;37.95
47082;BME280;33066;49.296;14.470;2023-02-23T08:34:50;96695.27;;;12.87;38.26
47082;BME280;33066;49.296;14.470;2023-02-23T08:37:15;96695.38;;;12.91;38.16
47082;BME280;33066;49.296;14.470;2023-02-23T08:39:41;96695.56;;;12.72;38.16
47082;BME280;33066;49.296;14.470;2023-02-23T08:42:06;96696.03;;;12.68;38.17
47082;BME280;33066;49.296;14.470;2023-02-23T08:44:31;96695.11;;;12.77;38.24
47082;BME280;33066;49.296;14.470;2023-02-23T08:46:57;96696.17;;;12.45;38.23
47082;BME280;33066;49.296;14.470;2023-02-23T08:49:22;96697.46;;;12.61;38.19
47082;BME280;33066;49.296;14.470;2023-02-23T08:51:47;96698.44;;;12.68;38.26
47082;BME280;33066;49.296;14.470;2023-02-23T08:54:12;96699.48;;;12.68;38.35
47082;BME280;33066;49.296;14.470;2023-02-23T08:56:37;96698.38;;;12.74;38.36
47082;BME280;33066;49.296;14.470;2023-02-23T08:59:02;96698.54;;;12.87;38.37
47082;BME280;33066;49.296;14.470;2023-02-23T09:01:27;96700.71;;;12.86;38.38
47082;BME280;33066;49.296;14.470;2023-02-23T09:03:52;96702.04;;;12.97;38.24
47082;BME280;33066;49.296;14.470;2023-02-23T09:06:21;96701.34;;;13.09;38.09
47082;BME280;33066;49.296;14.470;2023-02-23T09:08:43;96703.01;;;12.98;37.94
47082;BME280;33066;49.296;14.470;2023-02-23T09:11:09;96703.03;;;13.31;37.75
47082;BME280;33066;49.296;14.470;2023-02-23T09:13:34;96702.55;;;12.84;37.66
47082;BME280;33066;49.296;14.470;2023-02-23T09:15:59;96704.96;;;12.64;37.71
47082;BME280;33066;49.296;14.470;2023-02-23T09:18:25;96706.91;;;12.55;37.80
47082;BME280;33066;49.296;14.470;2023-02-23T09:20:50;96707.76;;;12.54;37.78
47082;BME280;33066;49.296;14.470;2023-02-23T09:23:16;96707.36;;;13.18;37.82
47082;BME280;33066;49.296;14.470;2023-02-23T09:25:43;96709.67;;;12.65;37.85
47082;BME280;33066;49.296;14.470;2023-02-23T09:28:08;96708.27;;;12.90;37.83
47082;BME280;33066;49.296;14.470;2023-02-23T09:30:33;96710.25;;;13.29;37.71
47082;BME280;33066;49.296;14.470;2023-02-23T09:32:59;96708.79;;;13.01;37.62
47082;BME280;33066;49.296;14.470;2023-02-23T09:35:24;96711.14;;;12.91;37.46
47082;BME280;33066;49.296;14.470;2023-02-23T09:37:52;96712.82;;;13.01;37.27
47082;BME280;33066;49.296;14.470;2023-02-23T09:40:17;96711.68;;;13.17;37.31
47082;BME280;33066;49.296;14.470;2023-02-23T09:42:45;96711.59;;;13.33;37.17
47082;BME280;33066;49.296;14.470;2023-02-23T09:45:15;96707.84;;;13.48;36.88
47082;BME280;33066;49.296;14.470;2023-02-23T09:47:38;96709.87;;;13.61;36.78
47082;BME280;33066;49.296;14.470;2023-02-23T09:49:59;96710.45;;;13.46;36.69
47082;BME280;33066;49.296;14.470;2023-02-23T09:52:26;96710.41;;;13.75;36.57
47082;BME280;33066;49.296;14.470;2023-02-23T09:54:49;96710.83;;;13.54;36.57
47082;BME280;33066;49.296;14.470;2023-02-23T09:57:18;96711.20;;;13.74;36.62
47082;BME280;33066;49.296;14.470;2023-02-23T09:59:40;96714.05;;;13.49;36.36
47082;BME280;33066;49.296;14.470;2023-02-23T10:02:15;96714.92;;;13.62;36.38
47082;BME280;33066;49.296;14.470;2023-02-23T10:04:36;96714.98;;;13.98;36.32
47082;BME280;33066;49.296;14.470;2023-02-23T10:06:59;96716.26;;;13.77;36.39
47082;BME280;33066;49.296;14.470;2023-02-23T10:09:27;96718.95;;;13.89;36.23
47082;BME280;33066;49.296;14.470;2023-02-23T10:11:51;96718.61;;;13.51;36.24
47082;BME280;33066;49.296;14.470;2023-02-23T10:14:22;96721.63;;;13.89;36.46
47082;BME280;33066;49.296;14.470;2023-02-23T10:16:47;96724.78;;;13.69;36.52
47082;BME280;33066;49.296;14.470;2023-02-23T10:19:09;96722.36;;;13.70;36.58
47082;BME280;33066;49.296;14.470;2023-02-23T10:21:33;96723.19;;;13.95;36.58
47082;BME280;33066;49.296;14.470;2023-02-23T10:23:57;96721.55;;;13.52;36.35
47082;BME280;33066;49.296;14.470;2023-02-23T10:26:22;96721.36;;;13.50;36.23
47082;BME280;33066;49.296;14.470;2023-02-23T10:28:45;96722.97;;;13.53;36.27
47082;BME280;33066;49.296;14.470;2023-02-23T10:31:23;96717.66;;;13.67;36.24
47082;BME280;33066;49.296;14.470;2023-02-23T10:33:38;96711.50;;;14.16;36.41
47082;BME280;33066;49.296;14.470;2023-02-23T10:36:09;96709.19;;;13.80;36.01
47082;BME280;33066;49.296;14.470;2023-02-23T10:38:25;96708.64;;;14.34;36.02
47082;BME280;33066;49.296;14.470;2023-02-23T10:40:54;96707.01;;;14.13;35.95
47082;BME280;33066;49.296;14.470;2023-02-23T10:43:16;96707.74;;;13.93;35.97
47082;BME280;33066;49.296;14.470;2023-02-23T10:45:44;96704.30;;;14.02;35.75
47082;BME280;33066;49.296;14.470;2023-02-23T10:48:12;96702.98;;;13.70;35.92
47082;BME280;33066;49.296;14.470;2023-02-23T10:50:34;96701.17;;;13.97;35.84
47082;BME280;33066;49.296;14.470;2023-02-23T10:53:02;96700.32;;;14.09;35.82
47082;BME280;33066;49.296;14.470;2023-02-23T10:55:25;96697.17;;;14.32;35.79
47082;BME280;33066;49.296;14.470;2023-02-23T10:57:49;96695.79;;;14.35;35.91
47082;BME280;33066;49.296;14.470;2023-02-23T11:00:25;96695.19;;;14.23;35.85
47082;BME280;33066;49.296;14.470;2023-02-23T11:02:39;96694.15;;;14.55;35.69
47082;BME280;33066;49.296;14.470;2023-02-23T11:05:05;96694.83;;;14.57;35.50
47082;BME280;33066;49.296;14.470;2023-02-23T11:07:31;96694.20;;;14.59;35.43
47082;BME280;33066;49.296;14.470;2023-02-23T11:09:55;96692.32;;;14.43;35.33
47082;BME280;33066;49.296;14.470;2023-02-23T11:12:23;96688.33;;;14.63;35.44
47082;BME280;33066;49.296;14.470;2023-02-23T11:14:47;96686.19;;;14.45;35.36
47082;BME280;33066;49.296;14.470;2023-02-23T11:17:23;96682.67;;;14.30;35.42
47082;BME280;33066;49.296;14.470;2023-02-23T11:19:37;96680.34;;;14.36;35.43
47082;BME280;33066;49.296;14.470;2023-02-23T11:22:03;96676.70;;;14.41;35.47
47082;BME280;33066;49.296;14.470;2023-02-23T11:24:32;96675.86;;;14.66;35.42
47082;BME280;33066;49.296;14.470;2023-02-23T11:26:55;96670.07;;;14.55;35.38
47082;BME280;33066;49.296;14.470;2023-02-23T11:29:26;96663.93;;;14.82;35.21
47082;BME280;33066;49.296;14.470;2023-02-23T11:31:48;96655.40;;;14.90;35.02
47082;BME280;33066;49.296;14.470;2023-02-23T11:34:21;96654.91;;;14.98;34.85
47082;BME280;33066;49.296;14.470;2023-02-23T11:36:37;96653.33;;;14.88;34.70
47082;BME280;33066;49.296;14.470;2023-02-23T11:39:08;96650.84;;;15.26;34.80
47082;BME280;33066;49.296;14.470;2023-02-23T11:41:27;96645.37;;;15.48;34.57
47082;BME280;33066;49.296;14.470;2023-02-23T11:43:57;96642.17;;;15.25;34.44
47082;BME280;33066;49.296;14.470;2023-02-23T11:46:19;96641.35;;;15.30;34.42
47082;BME280;33066;49.296;14.470;2023-02-23T11:48:49;96641.40;;;14.62;34.63
47082;BME280;33066;49.296;14.470;2023-02-23T11:51:10;96638.75;;;14.74;34.79
47082;BME280;33066;49.296;14.470;2023-02-23T11:53:38;96636.64;;;14.90;34.91
47082;BME280;33066;49.296;14.470;2023-02-23T11:56:03;96636.05;;;14.93;34.98
47082;BME280;33066;49.296;14.470;2023-02-23T11:58:33;96635.57;;;15.16;34.96
47082;BME280;33066;49.296;14.470;2023-02-23T12:00:55;96632.63;;;15.24;34.86
47082;BME280;33066;49.296;14.470;2023-02-23T12:03:23;96630.50;;;15.30;34.99
47082;BME280;33066;49.296;14.470;2023-02-23T12:05:49;96635.05;;;15.26;35.00
47082;BME280;33066;49.296;14.470;2023-02-23T12:08:11;96635.08;;;14.77;34.97
47082;BME280;33066;49.296;14.470;2023-02-23T12:10:37;96632.85;;;15.09;35.00
47082;BME280;33066;49.296;14.470;2023-02-23T12:13:04;96632.70;;;14.81;35.07
47082;BME280;33066;49.296;14.470;2023-02-23T12:15:34;96631.90;;;14.69;35.01
47082;BME280;33066;49.296;14.470;2023-02-23T12:17:54;96632.57;;;14.90;35.12
47082;BME280;33066;49.296;14.470;2023-02-23T12:20:20;96629.29;;;14.97;35.18
47082;BME280;33066;49.296;14.470;2023-02-23T12:22:43;96628.97;;;14.83;35.15
47082;BME280;33066;49.296;14.470;2023-02-23T12:25:15;96627.83;;;15.01;35.41
47082;BME280;33066;49.296;14.470;2023-02-23T12:27:37;96628.70;;;14.89;35.48
47082;BME280;33066;49.296;14.470;2023-02-23T12:30:04;96632.75;;;14.64;34.99
47082;BME280;33066;49.296;14.470;2023-02-23T12:32:25;96631.88;;;15.15;34.92
47082;BME280;33066;49.296;14.470;2023-02-23T12:34:52;96627.80;;;15.13;34.98
47082;BME280;33066;49.296;14.470;2023-02-23T12:37:24;96624.90;;;15.03;34.93
47082;BME280;33066;49.296;14.470;2023-02-23T12:39:43;96616.77;;;15.21;34.83
47082;BME280;33066;49.296;14.470;2023-02-23T12:42:10;96615.02;;;14.96;34.83
47082;BME280;33066;49.296;14.470;2023-02-23T12:44:34;96612.58;;;15.32;34.70
47082;BME280;33066;49.296;14.470;2023-02-23T12:46:59;96612.26;;;15.72;34.42
47082;BME280;33066;49.296;14.470;2023-02-23T12:49:27;96615.08;;;15.53;34.38
47082;BME280;33066;49.296;14.470;2023-02-23T12:51:49;96614.04;;;15.59;34.26